Gifu Aero, Japan

6:10 PM JST on October 20, 2014 (GMT +0900)
IU611BU73 | Change Station
CLOSE
Current Station
Personal Weather Station
Location: Kasugai, Aichi
Elevation: 52 ft
Nearby Weather Stations

Elev 52 ft 35.23 °N, 136.96 °E | Updated 0 second ago

Heavy Rain Showers
Heavy Showers Rain Mist
63.4 °F
Feels Like 63.4 °F
N
0.0
Wind Variable Wind from NNW
Gusts 0.0 mph

Today
High -- | Low -- °F
--% Chance of Precip.
Yesterday
High -- | Low -- °F
Precip. -- in
6:02 AM 5:11 PM
Waning Crescent, 12% visible
Pressure 30.12 in
Visibility 2.2 miles
Clouds Few 300 ft
Mostly Cloudy 500 ft
Mostly Cloudy 2000 ft
Dew Point 62 °F
Humidity 95%
Rainfall 0.46 in
Snow Depth Not available.
UV 0.0 out of 12
Pollen Not available.
Air Quality Not available.
Flu Activity Not available.
METAR RJGG 200900Z 04005KT 350V080 3500 R18/1100VP1800D +SHRA BR FEW003 BKN005 BKN020 18/18 Q1020 NOSIG

More Conditions Fewer Conditions

Pressure 30.12 in
Visibility 2.2 miles
Clouds Few 300 ft
Mostly Cloudy 500 ft
Mostly Cloudy 2000 ft
Dew Point 62 °F
Humidity 95%
Rainfall 0.46 in
Snow Depth Not available.
UV 0.0 out of 12
Pollen Not available.
Air Quality Not available.
Flu Activity Not available.
METAR RJGG 200900Z 04005KT 350V080 3500 R18/1100VP1800D +SHRA BR FEW003 BKN005 BKN020 18/18 Q1020 NOSIG

More Conditions Fewer Conditions

10-Day Weather Forecast

Almanac

Astronomy

Oct. 20, 2014 Rise Set
Actual Time 6:02 AM JST 5:11 PM JST
Civil Twilight 5:36 AM JST 5:37 PM JST
Nautical Twilight 5:07 AM JST 6:07 PM JST
Astronomical Twilight 4:37 AM JST 6:36 PM JST
Moon 2:23 AM JST 3:08 PM JST
Length of Visible Light 12h 00m
Length of Day
11h 09m
Tomorrow will be 2m 7s shorter.
Waning Crescent, 12% of the Moon is Illuminated
Today
Waning Crescent
Oct 23
New
Oct 30
First Quarter
Nov 6
Full
Nov 14
Last Quarter

Yesterday's Extremes

Country Highs Country Lows

Community

WunderPhotos

Upload Photos

1,763,316 photos uploaded!

Nearby

Snow Depth

Not available.

Earthquake Activity

City Distance Mag. Time & Date
No recent earthquake activity has been reported nearby.
Minimum magnitude displayed is 2.5.

Coastal Water Temperatures

Place Temperature
No Stations Reporting

Nearby Weather Stations